Main page
METAR-TAF:

METAR-TAF

Airports :

Pinto Martins – Fortaleza International Airport

Fortaleza, Ceará, Brazil

latitude: 03-47S, longitude: 038-32W, elevation: 25 m

Current weather observation

The report was made 9 minutes ago, at 15:00 UTC
Wind 12 kt from the East
Temperature 31°C
Humidity 52%
Pressure 1011 hPa
Visibility 10 km or more
Few clouds at a height of 3000 ft

METAR: SBFZ 221500Z 08012KT 9999 FEW030 31/20 Q1011

Time: 12:09 (15:09 UTC)

Forecast

The report was made 5 hours and 9 minutes ago, at 10:00 UTC
Forecast valid from 22 at 12 UTC to 23 at 12 UTC
Wind 8 kt from the Southeast
Visibility 10 km or more
Scattered clouds at a height of 2300 ft
Becoming
from 22 at 13 UTC to 22 at 15 UTC
Wind 15 kt from the East
Becoming
from 22 at 19 UTC to 22 at 21 UTC
Wind 10 kt from the East/Northeast
Visibility 10 km or more
no clouds below 1500 m and no cumulonimbus

TAF: SBFZ 221000Z 2212/2312 14008KT 9999 SCT023 TX31/2215Z TN25/2307Z BECMG 2213/2215 10015KT BECMG 2219/2221 06010KT CAVOK RMK PEH

Weather observations and forecasts of more than 4000 airports (METAR and TAF reports).

The available stations are represented by yellow and red dots on the map.

Hover mouse over dot to see the name of the station.

Then click to see weather observations and forecasts.

To change the map : click on the green buttons with a black cross to zoom in, on the green button with a dash to zoom out, or on the green arrows for adjacent maps.


METAR-TAF: